createdAt,value
2024-02-13T00:00:11.832Z,1.20
2024-02-13T00:02:41.136Z,1.50
2024-02-13T00:05:09.570Z,1.30
2024-02-13T00:07:37.811Z,1.10
2024-02-13T00:10:06.344Z,1.10
2024-02-13T00:12:34.396Z,1.20
2024-02-13T00:15:02.239Z,1.00
2024-02-13T00:17:30.207Z,1.20
2024-02-13T00:20:01.447Z,1.40
2024-02-13T00:22:28.350Z,1.50
2024-02-13T00:24:57.456Z,1.40
2024-02-13T00:27:26.225Z,1.40
2024-02-13T00:29:55.923Z,1.50
2024-02-13T00:32:24.201Z,1.50
2024-02-13T00:34:51.964Z,1.40
2024-02-13T00:37:19.176Z,1.40
2024-02-13T00:39:46.921Z,1.40
2024-02-13T00:42:15.444Z,1.10
2024-02-13T00:44:44.600Z,0.80
2024-02-13T00:47:11.532Z,0.70
2024-02-13T00:49:43.200Z,0.90
2024-02-13T00:52:10.073Z,0.90
2024-02-13T00:54:47.269Z,1.00
2024-02-13T00:57:14.487Z,1.10
2024-02-13T00:59:45.429Z,1.20
2024-02-13T01:02:19.960Z,1.10
2024-02-13T01:04:48.955Z,1.20
2024-02-13T01:07:21.035Z,1.30
2024-02-13T01:09:51.526Z,1.30
2024-02-13T01:12:20.606Z,1.20
2024-02-13T01:14:50.547Z,1.20
2024-02-13T01:17:19.077Z,1.10
2024-02-13T01:19:48.808Z,1.10
2024-02-13T01:22:26.206Z,0.80
2024-02-13T01:24:54.265Z,0.90
2024-02-13T01:27:21.440Z,1.00
2024-02-13T01:29:49.161Z,1.10
2024-02-13T01:32:18.154Z,1.10
2024-02-13T01:34:47.477Z,1.20
2024-02-13T01:37:14.763Z,1.30
2024-02-13T01:39:44.544Z,1.30
2024-02-13T01:42:12.942Z,1.20
2024-02-13T01:44:42.388Z,1.20
2024-02-13T01:47:11.236Z,1.10
2024-02-13T01:49:38.493Z,1.10
2024-02-13T01:52:06.381Z,0.90
2024-02-13T01:54:36.091Z,1.00
2024-02-13T01:57:04.736Z,1.10
2024-02-13T01:59:33.348Z,1.20
2024-02-13T02:02:01.113Z,1.20
2024-02-13T02:04:30.145Z,1.20
2024-02-13T02:06:58.212Z,1.20
2024-02-13T02:09:27.062Z,0.90
2024-02-13T02:11:55.456Z,1.00
2024-02-13T02:14:23.688Z,0.90
2024-02-13T02:16:51.775Z,0.80
2024-02-13T02:19:19.001Z,0.90
2024-02-13T02:21:48.546Z,1.10
2024-02-13T02:24:15.407Z,1.20
2024-02-13T02:26:44.116Z,1.40
2024-02-13T02:29:11.057Z,1.30
2024-02-13T02:31:41.097Z,1.30
2024-02-13T02:34:10.661Z,1.30
2024-02-13T02:36:37.615Z,1.40
2024-02-13T02:39:04.952Z,1.30
2024-02-13T02:41:33.383Z,1.30
2024-02-13T02:44:01.469Z,1.30
2024-02-13T02:46:32.701Z,1.30
2024-02-13T02:48:59.699Z,1.40
2024-02-13T02:51:29.865Z,1.50
2024-02-13T02:53:59.216Z,1.40
2024-02-13T02:56:26.544Z,1.60
2024-02-13T02:58:54.594Z,1.60
2024-02-13T03:01:21.437Z,1.70
2024-02-13T03:03:51.173Z,1.70
2024-02-13T03:06:21.118Z,1.70
2024-02-13T03:08:52.834Z,1.80
2024-02-13T03:11:20.878Z,1.80
2024-02-13T03:13:48.969Z,1.60
2024-02-13T03:16:17.988Z,1.70
2024-02-13T03:18:44.985Z,1.80
2024-02-13T03:21:15.697Z,1.80
2024-02-13T03:23:48.325Z,1.80
2024-02-13T03:26:15.788Z,1.80
2024-02-13T03:28:44.193Z,1.80
2024-02-13T03:31:11.761Z,1.70
2024-02-13T03:33:42.516Z,1.60
2024-02-13T03:36:10.625Z,1.60
2024-02-13T03:38:37.822Z,1.60
2024-02-13T03:41:05.815Z,1.50
2024-02-13T03:43:35.159Z,1.40
2024-02-13T03:46:02.773Z,1.40
2024-02-13T03:48:30.403Z,1.30
2024-02-13T03:50:58.232Z,1.40
2024-02-13T03:53:26.338Z,1.40
2024-02-13T03:55:55.840Z,1.40
2024-02-13T03:58:24.632Z,1.30
2024-02-13T04:00:52.829Z,1.30
2024-02-13T04:03:23.040Z,1.30
2024-02-13T04:05:51.181Z,1.40
2024-02-13T04:08:19.460Z,1.40
2024-02-13T04:10:48.060Z,1.50
2024-02-13T04:13:17.168Z,1.50
2024-02-13T04:15:44.307Z,1.50
2024-02-13T04:18:11.778Z,1.60
2024-02-13T04:20:43.080Z,1.50
2024-02-13T04:23:10.833Z,1.50
2024-02-13T04:25:37.701Z,1.60
2024-02-13T04:28:05.060Z,1.60
2024-02-13T04:30:32.816Z,1.50
2024-02-13T04:33:02.390Z,1.20
2024-02-13T04:35:29.399Z,1.10
2024-02-13T04:37:58.933Z,0.70
2024-02-13T04:40:27.035Z,0.70
2024-02-13T04:42:53.917Z,0.90
2024-02-13T04:45:23.914Z,1.00
2024-02-13T04:47:51.979Z,1.10
2024-02-13T04:50:22.473Z,1.30
2024-02-13T04:52:51.379Z,1.10
2024-02-13T04:55:19.658Z,1.10
2024-02-13T04:57:54.111Z,1.10
2024-02-13T05:00:32.257Z,1.10
2024-02-13T05:03:26.819Z,1.20
2024-02-13T05:06:12.768Z,1.20
2024-02-13T05:08:42.826Z,1.20
2024-02-13T05:11:13.014Z,1.20
2024-02-13T05:13:40.680Z,1.20
2024-02-13T05:16:07.808Z,1.10
2024-02-13T05:18:35.773Z,1.00
2024-02-13T05:21:04.531Z,1.10
2024-02-13T05:23:31.787Z,1.10
2024-02-13T05:25:59.167Z,1.10
2024-02-13T05:28:28.710Z,1.10
2024-02-13T05:30:59.026Z,1.10
2024-02-13T05:33:28.557Z,1.00
2024-02-13T05:35:56.745Z,1.00
2024-02-13T05:38:24.337Z,1.00
2024-02-13T05:40:52.604Z,1.00
2024-02-13T05:43:24.539Z,1.10
2024-02-13T05:45:51.402Z,1.00
2024-02-13T05:48:20.066Z,1.00
2024-02-13T05:50:48.006Z,1.00
2024-02-13T05:53:15.438Z,0.80
2024-02-13T05:55:42.496Z,0.70
2024-02-13T05:58:09.460Z,0.70
2024-02-13T06:00:36.515Z,0.80
2024-02-13T06:03:09.027Z,1.00
2024-02-13T06:05:37.226Z,1.00
2024-02-13T06:08:05.504Z,0.80
2024-02-13T06:10:37.609Z,0.50
2024-02-13T06:13:05.334Z,0.30
2024-02-13T06:15:33.728Z,0.50
2024-02-13T06:18:00.764Z,0.70
2024-02-13T06:20:32.282Z,0.80
2024-02-13T06:23:00.052Z,0.80
2024-02-13T06:25:29.376Z,1.10
2024-02-13T06:27:56.251Z,1.30
2024-02-13T06:30:24.769Z,1.40
2024-02-13T06:32:54.065Z,1.60
2024-02-13T06:35:21.007Z,1.70
2024-02-13T06:37:48.284Z,1.80
2024-02-13T06:40:17.517Z,2.00
2024-02-13T06:42:44.456Z,2.10
2024-02-13T06:45:12.953Z,2.10
2024-02-13T06:47:40.364Z,2.10
2024-02-13T06:50:13.484Z,2.20
2024-02-13T06:52:42.942Z,2.20
2024-02-13T06:55:11.007Z,2.20
2024-02-13T06:57:38.088Z,2.30
2024-02-13T07:00:09.640Z,2.30
2024-02-13T07:02:36.965Z,2.40
2024-02-13T07:05:06.059Z,2.40
2024-02-13T07:07:44.984Z,2.40
2024-02-13T07:10:16.729Z,2.50
2024-02-13T07:12:45.253Z,2.50
2024-02-13T07:15:12.556Z,2.50
2024-02-13T07:20:13.222Z,2.50
2024-02-13T07:22:40.975Z,2.60
2024-02-13T07:25:11.544Z,2.60
2024-02-13T07:27:39.684Z,2.60
2024-02-13T07:30:09.528Z,2.60
2024-02-13T07:32:39.658Z,2.70
2024-02-13T07:35:07.055Z,2.70
2024-02-13T07:37:35.736Z,2.70
2024-02-13T07:40:04.914Z,2.70
2024-02-13T07:42:33.205Z,2.70
2024-02-13T07:45:02.639Z,2.80
2024-02-13T07:47:31.726Z,2.80
2024-02-13T07:50:03.866Z,2.80
2024-02-13T07:52:33.333Z,2.80
2024-02-13T07:55:04.005Z,2.90
2024-02-13T07:57:34.244Z,2.90
2024-02-13T08:00:03.699Z,3.00
2024-02-13T08:02:33.431Z,3.00
2024-02-13T08:05:02.803Z,3.00
2024-02-13T08:07:29.940Z,3.00
2024-02-13T08:09:58.026Z,3.10
2024-02-13T08:12:27.753Z,3.10
2024-02-13T08:14:54.745Z,3.20
2024-02-13T08:17:21.728Z,3.20
2024-02-13T08:19:52.100Z,3.30
2024-02-13T08:22:24.062Z,3.30
2024-02-13T08:24:55.184Z,3.30
2024-02-13T08:27:23.822Z,3.30
2024-02-13T08:29:55.169Z,3.40
2024-02-13T08:32:23.172Z,3.50
2024-02-13T08:34:50.297Z,3.50
2024-02-13T08:37:17.340Z,3.60
2024-02-13T08:39:45.386Z,3.60
2024-02-13T08:42:12.238Z,3.70
2024-02-13T08:44:39.126Z,3.70
2024-02-13T08:47:08.993Z,3.70
2024-02-13T08:49:37.348Z,3.80
2024-02-13T08:52:13.412Z,3.90
2024-02-13T08:54:40.320Z,3.90
2024-02-13T08:57:09.251Z,4.00
2024-02-13T08:59:38.676Z,4.10
2024-02-13T09:02:10.501Z,4.10
2024-02-13T09:04:40.011Z,4.10
2024-02-13T09:07:08.149Z,4.20
2024-02-13T09:09:36.065Z,4.20
2024-02-13T09:12:11.695Z,4.20
2024-02-13T09:14:39.809Z,4.20
2024-02-13T09:17:06.983Z,4.20
2024-02-13T09:19:35.392Z,4.20
2024-02-13T09:22:02.292Z,4.30
2024-02-13T09:24:29.517Z,4.30
2024-02-13T09:26:56.644Z,4.30
2024-02-13T09:29:24.460Z,4.40
2024-02-13T09:31:53.804Z,4.40
2024-02-13T09:34:20.696Z,4.30
2024-02-13T09:36:47.866Z,4.30
2024-02-13T09:39:15.887Z,4.40
2024-02-13T09:41:42.772Z,4.50
2024-02-13T09:44:12.795Z,4.50
2024-02-13T09:46:40.081Z,4.50
2024-02-13T09:49:09.207Z,4.50
2024-02-13T09:51:37.727Z,4.60
2024-02-13T09:54:04.964Z,4.70
2024-02-13T09:56:34.443Z,4.70
2024-02-13T09:59:01.404Z,4.70
2024-02-13T10:01:28.392Z,4.90
2024-02-13T10:03:56.015Z,4.80
2024-02-13T10:06:26.702Z,4.90
2024-02-13T10:08:55.739Z,5.00
2024-02-13T10:11:34.327Z,5.00
2024-02-13T10:14:02.256Z,5.00
2024-02-13T10:16:31.824Z,4.80
2024-02-13T10:19:02.544Z,4.70
2024-02-13T10:21:31.599Z,4.80
2024-02-13T10:24:12.697Z,4.90
2024-02-13T10:26:40.250Z,4.80
2024-02-13T10:29:09.227Z,4.80
2024-02-13T10:31:41.958Z,4.90
2024-02-13T10:34:13.690Z,4.90
2024-02-13T10:36:48.709Z,5.00
2024-02-13T10:39:16.858Z,5.10
2024-02-13T10:41:46.176Z,5.20
2024-02-13T10:44:15.336Z,5.30
2024-02-13T10:46:46.252Z,5.40
2024-02-13T10:49:16.263Z,5.30
2024-02-13T10:51:48.411Z,5.30
2024-02-13T10:54:18.073Z,5.40
2024-02-13T10:56:45.746Z,5.40
2024-02-13T10:59:13.352Z,5.40
2024-02-13T11:01:43.866Z,5.40
2024-02-13T11:04:13.524Z,5.60
2024-02-13T11:06:40.782Z,5.50
2024-02-13T11:09:14.094Z,5.60
2024-02-13T11:11:48.975Z,5.90
2024-02-13T11:14:21.641Z,6.10
2024-02-13T11:16:55.028Z,6.20
2024-02-13T11:19:22.187Z,6.20
2024-02-13T11:21:53.264Z,6.50
2024-02-13T11:24:22.858Z,6.60
2024-02-13T11:26:50.203Z,6.60
2024-02-13T11:29:22.240Z,6.70
2024-02-13T11:32:00.278Z,6.60
2024-02-13T11:34:46.463Z,6.80
2024-02-13T11:37:17.427Z,6.80
2024-02-13T11:39:47.193Z,6.70
2024-02-13T11:42:19.345Z,6.50
2024-02-13T11:44:47.584Z,6.40
2024-02-13T11:47:15.640Z,6.10
2024-02-13T11:49:44.563Z,6.10
2024-02-13T11:52:12.814Z,6.30
2024-02-13T11:54:41.781Z,6.20
2024-02-13T11:57:12.494Z,6.30
2024-02-13T11:59:44.303Z,6.40
2024-02-13T12:02:16.313Z,6.60
2024-02-13T12:04:44.883Z,6.70
2024-02-13T12:07:15.743Z,6.70
2024-02-13T12:09:43.712Z,6.70
2024-02-13T12:12:11.407Z,6.80
2024-02-13T12:14:40.801Z,7.00
2024-02-13T12:17:10.034Z,7.00
2024-02-13T12:19:45.547Z,6.90
2024-02-13T12:22:16.042Z,6.90
2024-02-13T12:24:49.067Z,6.70
2024-02-13T12:27:17.115Z,6.60
2024-02-13T12:29:46.912Z,6.80
2024-02-13T12:32:20.411Z,7.10
2024-02-13T12:34:52.048Z,7.10
2024-02-13T12:37:20.490Z,6.90
2024-02-13T12:39:48.335Z,7.40
2024-02-13T12:42:18.863Z,7.30
2024-02-13T12:44:49.883Z,7.50
2024-02-13T12:47:20.418Z,7.40
2024-02-13T12:49:55.917Z,7.50
2024-02-13T12:52:23.804Z,7.70
2024-02-13T12:54:53.483Z,7.80
2024-02-13T12:57:22.687Z,8.30
2024-02-13T12:59:49.907Z,9.20
2024-02-13T13:02:23.016Z,9.40
2024-02-13T13:04:57.668Z,9.70
2024-02-13T13:07:25.383Z,9.90
2024-02-13T13:09:53.556Z,8.40
2024-02-13T13:12:22.979Z,8.10
2024-02-13T13:15:00.344Z,7.90
2024-02-13T13:17:36.060Z,8.10
2024-02-13T13:20:08.246Z,7.80
2024-02-13T13:22:36.604Z,7.80
2024-02-13T13:25:07.584Z,7.80
2024-02-13T13:27:36.946Z,7.70
2024-02-13T13:30:05.703Z,7.90
2024-02-13T13:32:42.480Z,8.10
2024-02-13T13:35:16.489Z,8.30
2024-02-13T13:37:44.067Z,8.60
2024-02-13T13:40:15.497Z,8.30
2024-02-13T13:42:46.946Z,8.70
2024-02-13T13:45:18.030Z,9.20
2024-02-13T13:47:45.596Z,8.30
2024-02-13T13:50:15.437Z,8.10
2024-02-13T13:52:43.192Z,8.10
2024-02-13T13:55:10.236Z,8.10
2024-02-13T13:57:41.434Z,7.80
2024-02-13T14:00:19.288Z,7.80
2024-02-13T14:02:48.965Z,8.00
2024-02-13T14:05:15.972Z,8.20
2024-02-13T14:07:42.872Z,8.40
2024-02-13T14:10:24.041Z,8.20
2024-02-13T14:12:55.107Z,8.10
2024-02-13T14:15:23.852Z,8.30
2024-02-13T14:17:51.870Z,8.40
2024-02-13T14:20:20.257Z,8.10
2024-02-13T14:22:51.342Z,8.10
2024-02-13T14:25:23.097Z,8.20
2024-02-13T14:27:52.882Z,8.10
2024-02-13T14:30:27.932Z,8.10
2024-02-13T14:32:55.933Z,7.80
2024-02-13T14:35:28.113Z,7.70
2024-02-13T14:38:00.140Z,8.00
2024-02-13T14:40:28.497Z,8.00
2024-02-13T14:42:59.311Z,7.80
2024-02-13T14:45:30.875Z,7.90
2024-02-13T14:48:01.326Z,7.70
2024-02-13T14:50:32.579Z,7.60
2024-02-13T14:53:00.698Z,7.70
2024-02-13T14:55:30.072Z,7.60
2024-02-13T14:58:06.852Z,7.60
2024-02-13T15:00:45.244Z,7.70
2024-02-13T15:03:14.580Z,7.70
2024-02-13T15:05:43.221Z,7.80
2024-02-13T15:08:12.935Z,7.80
2024-02-13T15:10:39.805Z,7.70
2024-02-13T15:13:10.666Z,7.70
2024-02-13T15:15:37.550Z,7.80
2024-02-13T15:18:08.449Z,7.70
2024-02-13T15:20:36.801Z,7.60
2024-02-13T15:23:07.562Z,7.60
2024-02-13T15:25:38.240Z,7.50
2024-02-13T15:28:06.557Z,7.40
2024-02-13T15:30:36.640Z,7.30
2024-02-13T15:33:09.153Z,7.30
2024-02-13T15:35:59.043Z,7.30
2024-02-13T15:38:47.180Z,7.30
2024-02-13T15:41:52.617Z,7.30
2024-02-13T15:44:38.145Z,7.30
2024-02-13T15:47:25.295Z,7.20
2024-02-13T15:50:10.655Z,7.20
2024-02-13T15:52:44.609Z,7.20
2024-02-13T15:55:19.674Z,7.10
2024-02-13T15:57:49.375Z,7.10
2024-02-13T16:00:17.619Z,7.00
2024-02-13T16:02:45.328Z,7.00
2024-02-13T16:05:15.829Z,6.90
2024-02-13T16:07:45.847Z,6.90
2024-02-13T16:10:16.116Z,6.80
2024-02-13T16:12:51.170Z,6.70
2024-02-13T16:15:18.356Z,6.70
2024-02-13T16:17:46.196Z,6.70
2024-02-13T16:20:15.421Z,6.60
2024-02-13T16:22:46.562Z,6.50
2024-02-13T16:25:15.815Z,6.10
2024-02-13T16:27:43.177Z,5.90
2024-02-13T16:30:10.694Z,5.30
2024-02-13T16:32:40.702Z,5.20
2024-02-13T16:35:10.985Z,5.40
2024-02-13T16:37:41.860Z,5.50
2024-02-13T16:40:15.270Z,5.70
2024-02-13T16:42:42.184Z,5.80
2024-02-13T16:45:12.594Z,5.80
2024-02-13T16:47:42.311Z,5.70
2024-02-13T16:50:18.346Z,5.60
2024-02-13T16:52:46.094Z,5.20
2024-02-13T16:55:15.196Z,5.20
2024-02-13T16:57:44.343Z,5.30
2024-02-13T17:00:14.636Z,5.40
2024-02-13T17:02:46.499Z,5.40
2024-02-13T17:05:15.062Z,5.40
2024-02-13T17:07:43.260Z,5.30
2024-02-13T17:10:13.569Z,5.10
2024-02-13T17:12:41.111Z,4.40
2024-02-13T17:15:11.565Z,4.40
2024-02-13T17:17:39.045Z,4.60
2024-02-13T17:20:11.301Z,4.70
2024-02-13T17:22:48.545Z,4.70
2024-02-13T17:25:18.088Z,4.70
2024-02-13T17:27:45.306Z,4.70
2024-02-13T17:30:16.977Z,4.70
2024-02-13T17:32:48.420Z,4.70
2024-02-13T17:35:16.676Z,4.70
2024-02-13T17:37:43.559Z,4.60
2024-02-13T17:40:13.453Z,4.60
2024-02-13T17:42:42.269Z,4.70
2024-02-13T17:45:10.093Z,4.70
2024-02-13T17:47:40.977Z,4.60
2024-02-13T17:50:20.627Z,4.40
2024-02-13T17:52:50.943Z,4.50
2024-02-13T17:55:21.694Z,4.60
2024-02-13T17:57:48.679Z,4.60
2024-02-13T18:00:21.431Z,4.40
2024-02-13T18:02:50.453Z,4.40
2024-02-13T18:05:17.836Z,4.40
2024-02-13T18:07:46.492Z,4.50
2024-02-13T18:10:13.644Z,4.50
2024-02-13T18:12:44.705Z,4.50
2024-02-13T18:15:16.785Z,4.50
2024-02-13T18:17:48.127Z,4.40
2024-02-13T18:20:16.589Z,4.40
2024-02-13T18:22:46.478Z,4.30
2024-02-13T18:25:17.433Z,4.20
2024-02-13T18:27:47.592Z,4.00
2024-02-13T18:30:14.765Z,4.00
2024-02-13T18:32:46.085Z,3.70
2024-02-13T18:35:15.952Z,3.90
2024-02-13T18:37:48.867Z,3.90
2024-02-13T18:40:15.842Z,3.90
2024-02-13T18:42:42.781Z,3.80
2024-02-13T18:45:14.564Z,4.00
2024-02-13T18:47:46.060Z,3.90
2024-02-13T18:50:13.017Z,3.80
2024-02-13T18:52:46.052Z,3.80
2024-02-13T18:55:13.089Z,3.20
2024-02-13T18:57:42.245Z,3.40
2024-02-13T19:00:11.430Z,3.50
2024-02-13T19:02:38.468Z,3.70
2024-02-13T19:05:06.294Z,3.60
2024-02-13T19:07:34.617Z,3.70
2024-02-13T19:10:06.381Z,3.80
2024-02-13T19:12:34.969Z,3.90
2024-02-13T19:15:03.160Z,4.00
2024-02-13T19:17:31.485Z,4.00
2024-02-13T19:19:59.596Z,4.20
2024-02-13T19:22:28.071Z,4.20
2024-02-13T19:24:54.937Z,4.10
2024-02-13T19:27:22.931Z,4.10
2024-02-13T19:29:49.899Z,4.10
2024-02-13T19:32:16.865Z,4.10
2024-02-13T19:34:45.172Z,4.10
2024-02-13T19:37:12.061Z,4.00
2024-02-13T19:39:40.208Z,4.00
2024-02-13T19:42:09.621Z,4.00
2024-02-13T19:44:39.800Z,4.10
2024-02-13T19:47:08.563Z,4.10
2024-02-13T19:49:37.814Z,4.10
2024-02-13T19:52:06.815Z,4.20
2024-02-13T19:54:35.894Z,4.20
2024-02-13T19:57:04.518Z,4.20
2024-02-13T19:59:31.968Z,4.20
2024-02-13T20:02:00.657Z,4.30
2024-02-13T20:04:29.007Z,4.30
2024-02-13T20:06:59.536Z,4.30
2024-02-13T20:09:30.530Z,4.30
2024-02-13T20:11:57.582Z,4.40
2024-02-13T20:14:27.000Z,4.40
2024-02-13T20:16:54.113Z,4.50
2024-02-13T20:19:21.842Z,4.50
2024-02-13T20:21:52.336Z,4.50
2024-02-13T20:24:21.160Z,4.50
2024-02-13T20:26:48.187Z,4.50
2024-02-13T20:29:15.678Z,4.50
2024-02-13T20:31:44.212Z,4.50
2024-02-13T20:34:12.731Z,4.60
2024-02-13T20:36:41.356Z,4.50
2024-02-13T20:39:14.360Z,4.50
2024-02-13T20:41:45.987Z,4.50
2024-02-13T20:44:15.772Z,4.50
2024-02-13T20:46:46.495Z,4.50
2024-02-13T20:49:14.216Z,4.50
2024-02-13T20:51:44.426Z,4.50
2024-02-13T20:54:21.217Z,4.50
2024-02-13T20:56:48.654Z,4.50
2024-02-13T20:59:17.826Z,4.60
2024-02-13T21:01:48.832Z,4.60
2024-02-13T21:04:18.549Z,4.60
2024-02-13T21:06:50.346Z,4.60
2024-02-13T21:09:18.349Z,4.60
2024-02-13T21:11:45.274Z,4.60
2024-02-13T21:14:12.840Z,4.70
2024-02-13T21:16:43.101Z,4.70
2024-02-13T21:19:11.168Z,4.60
2024-02-13T21:22:02.360Z,4.70
2024-02-13T21:24:29.466Z,4.60
2024-02-13T21:26:56.875Z,4.70
2024-02-13T21:29:25.503Z,4.70
2024-02-13T21:31:54.296Z,4.70
2024-02-13T21:34:27.369Z,4.70
2024-02-13T21:36:54.403Z,4.70
2024-02-13T21:39:23.667Z,4.70
2024-02-13T21:41:50.657Z,4.70
2024-02-13T21:44:18.639Z,4.70
2024-02-13T21:46:46.068Z,4.70
2024-02-13T21:49:21.113Z,4.80
2024-02-13T21:51:48.585Z,4.70
2024-02-13T21:54:15.908Z,4.80
2024-02-13T21:56:43.463Z,4.80
2024-02-13T21:59:11.418Z,4.80
2024-02-13T22:01:39.551Z,4.80
2024-02-13T22:04:07.572Z,4.90
2024-02-13T22:06:37.535Z,4.90
2024-02-13T22:09:04.900Z,4.90
2024-02-13T22:11:35.437Z,5.00
2024-02-13T22:14:03.435Z,5.00
2024-02-13T22:16:33.558Z,5.00
2024-02-13T22:19:04.119Z,5.10
2024-02-13T22:21:33.745Z,5.00
2024-02-13T22:24:02.693Z,5.00
2024-02-13T22:26:29.812Z,5.10
2024-02-13T22:28:57.902Z,5.00
2024-02-13T22:31:25.792Z,5.10
2024-02-13T22:33:56.084Z,5.10
2024-02-13T22:36:23.937Z,5.10
2024-02-13T22:38:52.178Z,5.10
2024-02-13T22:41:22.581Z,5.10
2024-02-13T22:43:49.561Z,5.00
2024-02-13T22:46:21.520Z,5.00
2024-02-13T22:48:51.235Z,5.00
2024-02-13T22:51:19.475Z,5.00
2024-02-13T22:53:46.358Z,5.00
2024-02-13T22:56:16.020Z,5.10
2024-02-13T22:58:44.149Z,5.10
2024-02-13T23:03:43.699Z,5.10
2024-02-13T23:06:10.906Z,5.10
2024-02-13T23:08:37.883Z,5.20
2024-02-13T23:11:12.727Z,5.20
2024-02-13T23:13:44.340Z,5.10
2024-02-13T23:16:18.056Z,5.20
2024-02-13T23:18:47.475Z,5.20
2024-02-13T23:21:14.707Z,5.20
2024-02-13T23:23:42.483Z,5.10
2024-02-13T23:26:09.712Z,5.20
2024-02-13T23:28:48.963Z,5.20
2024-02-13T23:31:23.153Z,5.20
2024-02-13T23:33:50.581Z,5.20
2024-02-13T23:36:17.777Z,5.20
2024-02-13T23:38:47.515Z,5.20
2024-02-13T23:41:16.662Z,5.30
2024-02-13T23:43:45.066Z,5.30
2024-02-13T23:46:13.232Z,5.30
2024-02-13T23:48:43.631Z,5.30
2024-02-13T23:51:19.521Z,5.30
2024-02-13T23:53:49.940Z,5.30
2024-02-13T23:56:19.632Z,5.30
2024-02-13T23:58:53.474Z,5.30
